Amboy, California
Current Conditions -  °F | °C
As of 10:56 AM on Wednesday 26 Nov 2014 (Local Time) from KNXP Reporting Station
Clear Clear  
Wind Chill: 64°   Ceiling: Unl
Heat Index: 64°   Visibility: 10mi
Dew Point:   Wind: 5mph
Humidity: 11%   Direction: 320°NW
Pressure: 30.42"   Gusts: NA
Location:  34.56°N, 115.75°W
Report Text: KNXP 261856Z 32004KT 10SM CLR 18/M13 A3042 RMK AO2 SLP281 T01781133 $
Loading
Personal Weather Stations






























Interactive Weather Map New forecast layout! Learn more

10-Day Weather Forecast

Advertisements
Track Severe Weather on mobile